sensor_id;sensor_type;location;lat;lon;timestamp;temperature;humidity
77496;SHT31;66600;48.378;9.948;2023-11-18T00:00:24;3.10;96.90
77496;SHT31;66600;48.378;9.948;2023-11-18T00:00:55;3.14;96.95
77496;SHT31;66600;48.378;9.948;2023-11-18T00:01:30;3.11;96.98
77496;SHT31;66600;48.378;9.948;2023-11-18T00:02:00;3.14;96.99
77496;SHT31;66600;48.378;9.948;2023-11-18T00:02:31;3.14;96.99
77496;SHT31;66600;48.378;9.948;2023-11-18T00:03:03;3.17;96.99
77496;SHT31;66600;48.378;9.948;2023-11-18T00:03:35;3.14;97.10
77496;SHT31;66600;48.378;9.948;2023-11-18T00:04:06;3.15;97.04
77496;SHT31;66600;48.378;9.948;2023-11-18T00:04:40;3.18;96.97
77496;SHT31;66600;48.378;9.948;2023-11-18T00:05:11;3.18;96.92
77496;SHT31;66600;48.378;9.948;2023-11-18T00:05:41;3.18;96.91
77496;SHT31;66600;48.378;9.948;2023-11-18T00:06:11;3.17;96.84
77496;SHT31;66600;48.378;9.948;2023-11-18T00:06:43;3.18;96.93
77496;SHT31;66600;48.378;9.948;2023-11-18T00:07:14;3.18;96.88
77496;SHT31;66600;48.378;9.948;2023-11-18T00:07:44;3.18;96.84
77496;SHT31;66600;48.378;9.948;2023-11-18T00:08:15;3.18;96.86
77496;SHT31;66600;48.378;9.948;2023-11-18T00:08:45;3.21;96.86
77496;SHT31;66600;48.378;9.948;2023-11-18T00:09:15;3.21;96.79
77496;SHT31;66600;48.378;9.948;2023-11-18T00:09:45;3.22;96.72
77496;SHT31;66600;48.378;9.948;2023-11-18T00:10:16;3.20;96.72
77496;SHT31;66600;48.378;9.948;2023-11-18T00:10:47;3.21;96.72
77496;SHT31;66600;48.378;9.948;2023-11-18T00:11:17;3.18;96.69
77496;SHT31;66600;48.378;9.948;2023-11-18T00:11:48;3.20;96.66
77496;SHT31;66600;48.378;9.948;2023-11-18T00:12:19;3.17;96.73
77496;SHT31;66600;48.378;9.948;2023-11-18T00:12:49;3.17;96.78
77496;SHT31;66600;48.378;9.948;2023-11-18T00:13:20;3.14;96.78
77496;SHT31;66600;48.378;9.948;2023-11-18T00:13:50;3.15;96.76
77496;SHT31;66600;48.378;9.948;2023-11-18T00:14:20;3.11;96.82
77496;SHT31;66600;48.378;9.948;2023-11-18T00:14:51;3.14;96.81
77496;SHT31;66600;48.378;9.948;2023-11-18T00:15:22;3.13;96.75
77496;SHT31;66600;48.378;9.948;2023-11-18T00:15:52;3.10;97.00
77496;SHT31;66600;48.378;9.948;2023-11-18T00:16:22;3.07;97.01
77496;SHT31;66600;48.378;9.948;2023-11-18T00:16:53;3.07;96.95
77496;SHT31;66600;48.378;9.948;2023-11-18T00:17:23;3.05;97.01
77496;SHT31;66600;48.378;9.948;2023-11-18T00:17:53;3.07;96.97
77496;SHT31;66600;48.378;9.948;2023-11-18T00:18:24;3.05;96.99
77496;SHT31;66600;48.378;9.948;2023-11-18T00:18:54;3.01;97.10
77496;SHT31;66600;48.378;9.948;2023-11-18T00:19:24;2.99;97.18
77496;SHT31;66600;48.378;9.948;2023-11-18T00:19:55;2.99;97.14
77496;SHT31;66600;48.378;9.948;2023-11-18T00:20:25;3.00;97.09
77496;SHT31;66600;48.378;9.948;2023-11-18T00:20:56;2.97;97.08
77496;SHT31;66600;48.378;9.948;2023-11-18T00:21:27;2.97;97.10
77496;SHT31;66600;48.378;9.948;2023-11-18T00:22:00;2.94;97.15
77496;SHT31;66600;48.378;9.948;2023-11-18T00:22:30;2.94;97.15
77496;SHT31;66600;48.378;9.948;2023-11-18T00:23:01;2.97;97.14
77496;SHT31;66600;48.378;9.948;2023-11-18T00:23:34;2.92;97.11
77496;SHT31;66600;48.378;9.948;2023-11-18T00:24:05;2.96;97.11
77496;SHT31;66600;48.378;9.948;2023-11-18T00:24:35;2.93;97.09
77496;SHT31;66600;48.378;9.948;2023-11-18T00:25:06;2.89;97.22
77496;SHT31;66600;48.378;9.948;2023-11-18T00:25:40;2.89;97.23
77496;SHT31;66600;48.378;9.948;2023-11-18T00:26:11;2.84;97.41
77496;SHT31;66600;48.378;9.948;2023-11-18T00:26:43;2.82;97.49
77496;SHT31;66600;48.378;9.948;2023-11-18T00:27:13;2.75;97.72
77496;SHT31;66600;48.378;9.948;2023-11-18T00:27:45;2.73;97.78
77496;SHT31;66600;48.378;9.948;2023-11-18T00:28:15;2.67;97.73
77496;SHT31;66600;48.378;9.948;2023-11-18T00:28:45;2.67;97.77
77496;SHT31;66600;48.378;9.948;2023-11-18T00:29:17;2.66;97.86
77496;SHT31;66600;48.378;9.948;2023-11-18T00:29:48;2.69;97.97
77496;SHT31;66600;48.378;9.948;2023-11-18T00:30:18;2.67;98.08
77496;SHT31;66600;48.378;9.948;2023-11-18T00:30:48;2.67;98.02
77496;SHT31;66600;48.378;9.948;2023-11-18T00:31:19;2.67;97.88
77496;SHT31;66600;48.378;9.948;2023-11-18T00:31:49;2.73;97.79
77496;SHT31;66600;48.378;9.948;2023-11-18T00:32:19;2.73;97.81
77496;SHT31;66600;48.378;9.948;2023-11-18T00:32:50;2.75;97.75
77496;SHT31;66600;48.378;9.948;2023-11-18T00:33:20;2.77;97.66
77496;SHT31;66600;48.378;9.948;2023-11-18T00:33:51;2.76;97.66
77496;SHT31;66600;48.378;9.948;2023-11-18T00:34:21;2.77;97.61
77496;SHT31;66600;48.378;9.948;2023-11-18T00:34:51;2.75;97.65
77496;SHT31;66600;48.378;9.948;2023-11-18T00:35:22;2.72;97.72
77496;SHT31;66600;48.378;9.948;2023-11-18T00:35:52;2.72;97.88
77496;SHT31;66600;48.378;9.948;2023-11-18T00:36:22;2.71;97.81
77496;SHT31;66600;48.378;9.948;2023-11-18T00:36:53;2.71;97.83
77496;SHT31;66600;48.378;9.948;2023-11-18T00:37:23;2.69;97.86
77496;SHT31;66600;48.378;9.948;2023-11-18T00:37:53;2.67;97.85
77496;SHT31;66600;48.378;9.948;2023-11-18T00:38:24;2.69;97.82
77496;SHT31;66600;48.378;9.948;2023-11-18T00:38:54;2.69;97.83
77496;SHT31;66600;48.378;9.948;2023-11-18T00:39:25;2.67;98.03
77496;SHT31;66600;48.378;9.948;2023-11-18T00:39:55;2.69;98.01
77496;SHT31;66600;48.378;9.948;2023-11-18T00:40:26;2.67;97.99
77496;SHT31;66600;48.378;9.948;2023-11-18T00:40:59;2.65;98.05
77496;SHT31;66600;48.378;9.948;2023-11-18T00:41:30;2.69;98.02
77496;SHT31;66600;48.378;9.948;2023-11-18T00:42:00;2.65;98.12
77496;SHT31;66600;48.378;9.948;2023-11-18T00:42:31;2.63;98.11
77496;SHT31;66600;48.378;9.948;2023-11-18T00:43:01;2.66;98.11
77496;SHT31;66600;48.378;9.948;2023-11-18T00:43:32;2.63;98.12
77496;SHT31;66600;48.378;9.948;2023-11-18T00:44:03;2.69;98.13
77496;SHT31;66600;48.378;9.948;2023-11-18T00:44:33;2.66;98.14
77496;SHT31;66600;48.378;9.948;2023-11-18T00:45:04;2.71;98.12
77496;SHT31;66600;48.378;9.948;2023-11-18T00:45:35;2.73;98.14
77496;SHT31;66600;48.378;9.948;2023-11-18T00:46:05;2.73;98.12
77496;SHT31;66600;48.378;9.948;2023-11-18T00:46:36;2.76;98.02
77496;SHT31;66600;48.378;9.948;2023-11-18T00:47:06;2.80;98.07
77496;SHT31;66600;48.378;9.948;2023-11-18T00:47:37;2.80;98.07
77496;SHT31;66600;48.378;9.948;2023-11-18T00:48:07;2.86;98.01
77496;SHT31;66600;48.378;9.948;2023-11-18T00:48:38;2.87;97.95
77496;SHT31;66600;48.378;9.948;2023-11-18T00:49:09;2.93;97.93
77496;SHT31;66600;48.378;9.948;2023-11-18T00:49:41;2.92;97.87
77496;SHT31;66600;48.378;9.948;2023-11-18T00:50:11;2.94;97.85
77496;SHT31;66600;48.378;9.948;2023-11-18T00:50:41;2.97;97.85
77496;SHT31;66600;48.378;9.948;2023-11-18T00:51:12;2.96;97.76
77496;SHT31;66600;48.378;9.948;2023-11-18T00:51:42;2.97;97.70
77496;SHT31;66600;48.378;9.948;2023-11-18T00:52:12;2.93;97.70
77496;SHT31;66600;48.378;9.948;2023-11-18T00:52:43;2.90;97.65
77496;SHT31;66600;48.378;9.948;2023-11-18T00:53:13;2.89;97.68
77496;SHT31;66600;48.378;9.948;2023-11-18T00:53:44;2.79;97.86
77496;SHT31;66600;48.378;9.948;2023-11-18T00:54:14;2.73;98.31
77496;SHT31;66600;48.378;9.948;2023-11-18T00:54:45;2.71;98.36
77496;SHT31;66600;48.378;9.948;2023-11-18T00:55:16;2.69;98.59
77496;SHT31;66600;48.378;9.948;2023-11-18T00:55:48;2.66;98.68
77496;SHT31;66600;48.378;9.948;2023-11-18T00:56:20;2.66;98.73
77496;SHT31;66600;48.378;9.948;2023-11-18T00:56:51;2.65;98.84
77496;SHT31;66600;48.378;9.948;2023-11-18T00:57:22;2.65;98.85
77496;SHT31;66600;48.378;9.948;2023-11-18T00:57:52;2.62;98.91
77496;SHT31;66600;48.378;9.948;2023-11-18T00:58:23;2.60;98.93
77496;SHT31;66600;48.378;9.948;2023-11-18T00:58:53;2.62;99.03
77496;SHT31;66600;48.378;9.948;2023-11-18T00:59:23;2.60;99.08
77496;SHT31;66600;48.378;9.948;2023-11-18T00:59:54;2.62;99.23
77496;SHT31;66600;48.378;9.948;2023-11-18T01:00:24;2.65;99.16
77496;SHT31;66600;48.378;9.948;2023-11-18T01:00:56;2.69;99.13
77496;SHT31;66600;48.378;9.948;2023-11-18T01:01:27;2.71;98.96
77496;SHT31;66600;48.378;9.948;2023-11-18T01:01:58;2.77;98.82
77496;SHT31;66600;48.378;9.948;2023-11-18T01:02:28;2.76;98.69
77496;SHT31;66600;48.378;9.948;2023-11-18T01:02:59;2.79;98.56
77496;SHT31;66600;48.378;9.948;2023-11-18T01:03:29;2.83;98.48
77496;SHT31;66600;48.378;9.948;2023-11-18T01:04:00;2.84;98.37
77496;SHT31;66600;48.378;9.948;2023-11-18T01:04:31;2.83;98.20
77496;SHT31;66600;48.378;9.948;2023-11-18T01:05:03;2.83;98.17
77496;SHT31;66600;48.378;9.948;2023-11-18T01:05:33;2.82;98.21
77496;SHT31;66600;48.378;9.948;2023-11-18T01:06:04;2.84;98.19
77496;SHT31;66600;48.378;9.948;2023-11-18T01:06:36;2.82;98.07
77496;SHT31;66600;48.378;9.948;2023-11-18T01:07:06;2.83;98.11
77496;SHT31;66600;48.378;9.948;2023-11-18T01:07:38;2.79;98.19
77496;SHT31;66600;48.378;9.948;2023-11-18T01:08:09;2.76;98.23
77496;SHT31;66600;48.378;9.948;2023-11-18T01:08:39;2.75;98.29
77496;SHT31;66600;48.378;9.948;2023-11-18T01:09:10;2.75;98.31
77496;SHT31;66600;48.378;9.948;2023-11-18T01:09:40;2.69;98.35
77496;SHT31;66600;48.378;9.948;2023-11-18T01:10:11;2.67;98.44
77496;SHT31;66600;48.378;9.948;2023-11-18T01:10:41;2.63;98.55
77496;SHT31;66600;48.378;9.948;2023-11-18T01:11:18;2.65;98.50
77496;SHT31;66600;48.378;9.948;2023-11-18T01:11:49;2.66;98.47
77496;SHT31;66600;48.378;9.948;2023-11-18T01:12:19;2.65;98.35
77496;SHT31;66600;48.378;9.948;2023-11-18T01:12:50;2.66;98.35
77496;SHT31;66600;48.378;9.948;2023-11-18T01:13:21;2.66;98.35
77496;SHT31;66600;48.378;9.948;2023-11-18T01:13:51;2.63;98.47
77496;SHT31;66600;48.378;9.948;2023-11-18T01:14:24;2.62;98.47
77496;SHT31;66600;48.378;9.948;2023-11-18T01:14:55;2.60;98.56
77496;SHT31;66600;48.378;9.948;2023-11-18T01:15:25;2.55;98.67
77496;SHT31;66600;48.378;9.948;2023-11-18T01:15:55;2.57;98.74
77496;SHT31;66600;48.378;9.948;2023-11-18T01:16:26;2.59;98.65
77496;SHT31;66600;48.378;9.948;2023-11-18T01:16:58;2.55;98.74
77496;SHT31;66600;48.378;9.948;2023-11-18T01:17:29;2.55;98.83
77496;SHT31;66600;48.378;9.948;2023-11-18T01:18:01;2.55;98.80
77496;SHT31;66600;48.378;9.948;2023-11-18T01:18:32;2.52;98.87
77496;SHT31;66600;48.378;9.948;2023-11-18T01:19:02;2.50;98.99
77496;SHT31;66600;48.378;9.948;2023-11-18T01:19:33;2.48;98.99
77496;SHT31;66600;48.378;9.948;2023-11-18T01:20:07;2.48;98.98
77496;SHT31;66600;48.378;9.948;2023-11-18T01:20:41;2.46;99.01
77496;SHT31;66600;48.378;9.948;2023-11-18T01:21:12;2.44;99.12
77496;SHT31;66600;48.378;9.948;2023-11-18T01:21:42;2.42;99.05
77496;SHT31;66600;48.378;9.948;2023-11-18T01:22:12;2.46;99.08
77496;SHT31;66600;48.378;9.948;2023-11-18T01:22:43;2.48;99.13
77496;SHT31;66600;48.378;9.948;2023-11-18T01:23:15;2.44;99.19
77496;SHT31;66600;48.378;9.948;2023-11-18T01:23:46;2.42;99.17
77496;SHT31;66600;48.378;9.948;2023-11-18T01:24:16;2.42;99.20
77496;SHT31;66600;48.378;9.948;2023-11-18T01:24:47;2.34;99.20
77496;SHT31;66600;48.378;9.948;2023-11-18T01:25:17;2.37;99.28
77496;SHT31;66600;48.378;9.948;2023-11-18T01:25:47;2.35;99.36
77496;SHT31;66600;48.378;9.948;2023-11-18T01:26:21;2.35;99.34
77496;SHT31;66600;48.378;9.948;2023-11-18T01:26:53;2.34;99.28
77496;SHT31;66600;48.378;9.948;2023-11-18T01:27:23;2.29;99.33
77496;SHT31;66600;48.378;9.948;2023-11-18T01:27:54;2.31;99.35
77496;SHT31;66600;48.378;9.948;2023-11-18T01:28:24;2.32;99.38
77496;SHT31;66600;48.378;9.948;2023-11-18T01:28:56;2.31;99.54
77496;SHT31;66600;48.378;9.948;2023-11-18T01:29:26;2.31;99.49
77496;SHT31;66600;48.378;9.948;2023-11-18T01:29:57;2.31;99.40
77496;SHT31;66600;48.378;9.948;2023-11-18T01:30:27;2.32;99.39
77496;SHT31;66600;48.378;9.948;2023-11-18T01:30:57;2.35;99.30
77496;SHT31;66600;48.378;9.948;2023-11-18T01:31:28;2.34;99.18
77496;SHT31;66600;48.378;9.948;2023-11-18T01:31:58;2.37;99.05
77496;SHT31;66600;48.378;9.948;2023-11-18T01:32:28;2.32;99.03
77496;SHT31;66600;48.378;9.948;2023-11-18T01:33:00;2.31;99.14
77496;SHT31;66600;48.378;9.948;2023-11-18T01:33:31;2.28;99.15
77496;SHT31;66600;48.378;9.948;2023-11-18T01:34:02;2.31;99.07
77496;SHT31;66600;48.378;9.948;2023-11-18T01:34:38;2.31;98.96
77496;SHT31;66600;48.378;9.948;2023-11-18T01:35:09;2.32;98.91
77496;SHT31;66600;48.378;9.948;2023-11-18T01:35:42;2.35;98.80
77496;SHT31;66600;48.378;9.948;2023-11-18T01:36:14;2.38;98.70
77496;SHT31;66600;48.378;9.948;2023-11-18T01:36:44;2.38;98.61
77496;SHT31;66600;48.378;9.948;2023-11-18T01:37:14;2.38;98.60
77496;SHT31;66600;48.378;9.948;2023-11-18T01:37:45;2.35;98.51
77496;SHT31;66600;48.378;9.948;2023-11-18T01:38:15;2.39;98.49
77496;SHT31;66600;48.378;9.948;2023-11-18T01:38:46;2.37;98.50
77496;SHT31;66600;48.378;9.948;2023-11-18T01:39:17;2.34;98.56
77496;SHT31;66600;48.378;9.948;2023-11-18T01:39:51;2.37;98.52
77496;SHT31;66600;48.378;9.948;2023-11-18T01:40:21;2.31;98.54
77496;SHT31;66600;48.378;9.948;2023-11-18T01:40:52;2.31;98.52
77496;SHT31;66600;48.378;9.948;2023-11-18T01:41:23;2.29;98.60
77496;SHT31;66600;48.378;9.948;2023-11-18T01:41:55;2.32;98.54
77496;SHT31;66600;48.378;9.948;2023-11-18T01:42:25;2.27;98.58
77496;SHT31;66600;48.378;9.948;2023-11-18T01:42:56;2.27;98.57
77496;SHT31;66600;48.378;9.948;2023-11-18T01:43:27;2.28;98.57
77496;SHT31;66600;48.378;9.948;2023-11-18T01:43:57;2.27;98.55
77496;SHT31;66600;48.378;9.948;2023-11-18T01:44:27;2.24;98.64
77496;SHT31;66600;48.378;9.948;2023-11-18T01:45:01;2.22;98.71
77496;SHT31;66600;48.378;9.948;2023-11-18T01:45:33;2.20;98.78
77496;SHT31;66600;48.378;9.948;2023-11-18T01:46:05;2.20;98.94
77496;SHT31;66600;48.378;9.948;2023-11-18T01:46:37;2.21;98.88
77496;SHT31;66600;48.378;9.948;2023-11-18T01:47:09;2.20;98.80
77496;SHT31;66600;48.378;9.948;2023-11-18T01:47:43;2.18;98.83
77496;SHT31;66600;48.378;9.948;2023-11-18T01:48:14;2.17;98.82
77496;SHT31;66600;48.378;9.948;2023-11-18T01:48:45;2.15;98.91
77496;SHT31;66600;48.378;9.948;2023-11-18T01:49:17;2.13;98.89
77496;SHT31;66600;48.378;9.948;2023-11-18T01:49:48;2.15;98.82
77496;SHT31;66600;48.378;9.948;2023-11-18T01:50:19;2.14;98.92
77496;SHT31;66600;48.378;9.948;2023-11-18T01:50:51;2.14;98.89
77496;SHT31;66600;48.378;9.948;2023-11-18T01:51:21;2.13;98.98
77496;SHT31;66600;48.378;9.948;2023-11-18T01:51:53;2.10;98.97
77496;SHT31;66600;48.378;9.948;2023-11-18T01:52:27;2.13;98.99
77496;SHT31;66600;48.378;9.948;2023-11-18T01:53:00;2.13;98.93
77496;SHT31;66600;48.378;9.948;2023-11-18T01:53:31;2.11;98.89
77496;SHT31;66600;48.378;9.948;2023-11-18T01:54:01;2.13;98.91
77496;SHT31;66600;48.378;9.948;2023-11-18T01:54:36;2.15;98.96
77496;SHT31;66600;48.378;9.948;2023-11-18T01:55:08;2.17;98.98
77496;SHT31;66600;48.378;9.948;2023-11-18T01:55:38;2.15;99.04
77496;SHT31;66600;48.378;9.948;2023-11-18T01:56:10;2.13;99.01
77496;SHT31;66600;48.378;9.948;2023-11-18T01:56:47;2.14;99.09
77496;SHT31;66600;48.378;9.948;2023-11-18T01:57:18;2.18;99.13
77496;SHT31;66600;48.378;9.948;2023-11-18T01:57:48;2.17;99.10
77496;SHT31;66600;48.378;9.948;2023-11-18T01:58:21;2.21;99.07
77496;SHT31;66600;48.378;9.948;2023-11-18T01:58:53;2.22;99.03
77496;SHT31;66600;48.378;9.948;2023-11-18T01:59:24;2.20;99.05
77496;SHT31;66600;48.378;9.948;2023-11-18T01:59:56;2.20;99.11
77496;SHT31;66600;48.378;9.948;2023-11-18T02:00:26;2.21;99.20
77496;SHT31;66600;48.378;9.948;2023-11-18T02:00:58;2.20;99.18
77496;SHT31;66600;48.378;9.948;2023-11-18T02:01:29;2.22;99.20
77496;SHT31;66600;48.378;9.948;2023-11-18T02:02:01;2.25;99.19
77496;SHT31;66600;48.378;9.948;2023-11-18T02:02:34;2.25;99.16
77496;SHT31;66600;48.378;9.948;2023-11-18T02:03:05;2.28;99.14
77496;SHT31;66600;48.378;9.948;2023-11-18T02:03:36;2.28;99.11
77496;SHT31;66600;48.378;9.948;2023-11-18T02:04:08;2.24;99.16
77496;SHT31;66600;48.378;9.948;2023-11-18T02:04:39;2.27;99.13
77496;SHT31;66600;48.378;9.948;2023-11-18T02:05:09;2.27;99.13
77496;SHT31;66600;48.378;9.948;2023-11-18T02:05:43;2.27;99.10
77496;SHT31;66600;48.378;9.948;2023-11-18T02:06:14;2.25;99.04
77496;SHT31;66600;48.378;9.948;2023-11-18T02:06:45;2.27;99.09
77496;SHT31;66600;48.378;9.948;2023-11-18T02:07:17;2.27;99.03
77496;SHT31;66600;48.378;9.948;2023-11-18T02:07:48;2.25;99.03
77496;SHT31;66600;48.378;9.948;2023-11-18T02:08:18;2.29;99.05
77496;SHT31;66600;48.378;9.948;2023-11-18T02:08:48;2.29;99.01
77496;SHT31;66600;48.378;9.948;2023-11-18T02:09:20;2.34;99.00
77496;SHT31;66600;48.378;9.948;2023-11-18T02:10:00;2.35;98.97
77496;SHT31;66600;48.378;9.948;2023-11-18T02:10:31;2.32;98.91
77496;SHT31;66600;48.378;9.948;2023-11-18T02:11:16;2.38;98.91
77496;SHT31;66600;48.378;9.948;2023-11-18T02:11:56;2.41;98.93
77496;SHT31;66600;48.378;9.948;2023-11-18T02:12:41;2.37;98.84
77496;SHT31;66600;48.378;9.948;2023-11-18T02:13:21;2.41;98.82
77496;SHT31;66600;48.378;9.948;2023-11-18T02:13:58;2.39;98.82
77496;SHT31;66600;48.378;9.948;2023-11-18T02:14:33;2.39;98.85
77496;SHT31;66600;48.378;9.948;2023-11-18T02:15:05;2.39;98.87
77496;SHT31;66600;48.378;9.948;2023-11-18T02:15:40;2.34;98.84
77496;SHT31;66600;48.378;9.948;2023-11-18T02:16:11;2.32;98.90
77496;SHT31;66600;48.378;9.948;2023-11-18T02:16:42;2.29;98.96
77496;SHT31;66600;48.378;9.948;2023-11-18T02:17:18;2.35;99.06
77496;SHT31;66600;48.378;9.948;2023-11-18T02:17:52;2.32;99.05
77496;SHT31;66600;48.378;9.948;2023-11-18T02:18:29;2.32;98.95
77496;SHT31;66600;48.378;9.948;2023-11-18T02:19:00;2.34;99.04
77496;SHT31;66600;48.378;9.948;2023-11-18T02:19:31;2.35;99.10
77496;SHT31;66600;48.378;9.948;2023-11-18T02:20:06;2.41;99.09
77496;SHT31;66600;48.378;9.948;2023-11-18T02:20:44;2.42;99.00
77496;SHT31;66600;48.378;9.948;2023-11-18T02:21:15;2.45;98.86
77496;SHT31;66600;48.378;9.948;2023-11-18T02:21:47;2.46;98.72
77496;SHT31;66600;48.378;9.948;2023-11-18T02:22:18;2.45;98.61
77496;SHT31;66600;48.378;9.948;2023-11-18T02:22:48;2.41;98.61
77496;SHT31;66600;48.378;9.948;2023-11-18T02:23:20;2.39;98.63
77496;SHT31;66600;48.378;9.948;2023-11-18T02:23:52;2.41;98.71
77496;SHT31;66600;48.378;9.948;2023-11-18T02:24:26;2.38;98.68
77496;SHT31;66600;48.378;9.948;2023-11-18T02:25:01;2.38;98.78
77496;SHT31;66600;48.378;9.948;2023-11-18T02:25:43;2.38;98.86
77496;SHT31;66600;48.378;9.948;2023-11-18T02:26:21;2.38;98.95
77496;SHT31;66600;48.378;9.948;2023-11-18T02:26:52;2.41;98.89
77496;SHT31;66600;48.378;9.948;2023-11-18T02:27:23;2.42;98.91
77496;SHT31;66600;48.378;9.948;2023-11-18T02:27:56;2.45;98.92
77496;SHT31;66600;48.378;9.948;2023-11-18T02:28:26;2.50;98.95
77496;SHT31;66600;48.378;9.948;2023-11-18T02:28:58;2.53;98.82
77496;SHT31;66600;48.378;9.948;2023-11-18T02:29:33;2.48;98.60
77496;SHT31;66600;48.378;9.948;2023-11-18T02:30:07;2.52;98.57
77496;SHT31;66600;48.378;9.948;2023-11-18T02:30:42;2.48;98.53
77496;SHT31;66600;48.378;9.948;2023-11-18T02:31:16;2.53;98.71
77496;SHT31;66600;48.378;9.948;2023-11-18T02:31:57;2.55;98.47
77496;SHT31;66600;48.378;9.948;2023-11-18T02:32:39;2.56;98.48
77496;SHT31;66600;48.378;9.948;2023-11-18T02:33:30;2.55;98.23
77496;SHT31;66600;48.378;9.948;2023-11-18T02:34:07;2.57;98.19
77496;SHT31;66600;48.378;9.948;2023-11-18T02:34:41;2.57;98.18
77496;SHT31;66600;48.378;9.948;2023-11-18T02:35:23;2.62;98.12
77496;SHT31;66600;48.378;9.948;2023-11-18T02:35:57;2.62;98.02
77496;SHT31;66600;48.378;9.948;2023-11-18T02:36:34;2.63;97.87
77496;SHT31;66600;48.378;9.948;2023-11-18T02:37:07;2.65;97.87
77496;SHT31;66600;48.378;9.948;2023-11-18T02:37:40;2.60;97.73
77496;SHT31;66600;48.378;9.948;2023-11-18T02:38:12;2.60;97.60
77496;SHT31;66600;48.378;9.948;2023-11-18T02:38:47;2.63;97.78
77496;SHT31;66600;48.378;9.948;2023-11-18T02:39:29;2.62;97.70
77496;SHT31;66600;48.378;9.948;2023-11-18T02:40:03;2.65;97.76
77496;SHT31;66600;48.378;9.948;2023-11-18T02:40:45;2.67;97.67
77496;SHT31;66600;48.378;9.948;2023-11-18T02:41:18;2.63;97.50
77496;SHT31;66600;48.378;9.948;2023-11-18T02:41:52;2.66;97.47
77496;SHT31;66600;48.378;9.948;2023-11-18T02:42:23;2.66;97.48
77496;SHT31;66600;48.378;9.948;2023-11-18T02:42:54;2.66;97.43
77496;SHT31;66600;48.378;9.948;2023-11-18T02:43:26;2.66;97.34
77496;SHT31;66600;48.378;9.948;2023-11-18T02:43:58;2.65;97.34
77496;SHT31;66600;48.378;9.948;2023-11-18T02:44:30;2.60;97.26
77496;SHT31;66600;48.378;9.948;2023-11-18T02:45:02;2.53;97.40
77496;SHT31;66600;48.378;9.948;2023-11-18T02:45:34;2.53;97.54
77496;SHT31;66600;48.378;9.948;2023-11-18T02:46:09;2.56;97.60
77496;SHT31;66600;48.378;9.948;2023-11-18T02:46:42;2.59;97.56
77496;SHT31;66600;48.378;9.948;2023-11-18T02:47:13;2.57;97.51
77496;SHT31;66600;48.378;9.948;2023-11-18T02:47:46;2.59;97.48
77496;SHT31;66600;48.378;9.948;2023-11-18T02:48:17;2.62;97.48
77496;SHT31;66600;48.378;9.948;2023-11-18T02:48:48;2.63;97.43
77496;SHT31;66600;48.378;9.948;2023-11-18T02:49:20;2.60;97.41
77496;SHT31;66600;48.378;9.948;2023-11-18T02:49:54;2.60;97.40
77496;SHT31;66600;48.378;9.948;2023-11-18T02:50:26;2.63;97.39
77496;SHT31;66600;48.378;9.948;2023-11-18T02:50:59;2.63;97.39
77496;SHT31;66600;48.378;9.948;2023-11-18T02:51:30;2.62;97.39
77496;SHT31;66600;48.378;9.948;2023-11-18T02:52:09;2.63;97.40
77496;SHT31;66600;48.378;9.948;2023-11-18T02:52:40;2.62;97.29
77496;SHT31;66600;48.378;9.948;2023-11-18T02:53:10;2.62;97.30
77496;SHT31;66600;48.378;9.948;2023-11-18T02:53:41;2.60;97.32
77496;SHT31;66600;48.378;9.948;2023-11-18T02:54:15;2.62;97.32
77496;SHT31;66600;48.378;9.948;2023-11-18T02:54:46;2.62;97.30
77496;SHT31;66600;48.378;9.948;2023-11-18T02:55:17;2.59;97.28
77496;SHT31;66600;48.378;9.948;2023-11-18T02:55:47;2.57;97.37
77496;SHT31;66600;48.378;9.948;2023-11-18T02:56:17;2.56;97.37
77496;SHT31;66600;48.378;9.948;2023-11-18T02:56:49;2.52;97.47
77496;SHT31;66600;48.378;9.948;2023-11-18T02:57:19;2.50;97.56
77496;SHT31;66600;48.378;9.948;2023-11-18T02:57:50;2.45;97.63
77496;SHT31;66600;48.378;9.948;2023-11-18T02:58:21;2.46;97.74
77496;SHT31;66600;48.378;9.948;2023-11-18T02:58:52;2.41;97.76
77496;SHT31;66600;48.378;9.948;2023-11-18T02:59:22;2.39;97.79
77496;SHT31;66600;48.378;9.948;2023-11-18T02:59:52;2.45;97.70
77496;SHT31;66600;48.378;9.948;2023-11-18T03:00:23;2.46;97.51
77496;SHT31;66600;48.378;9.948;2023-11-18T03:00:53;2.45;97.44
77496;SHT31;66600;48.378;9.948;2023-11-18T03:01:23;2.48;97.38
77496;SHT31;66600;48.378;9.948;2023-11-18T03:01:55;2.44;97.30
77496;SHT31;66600;48.378;9.948;2023-11-18T03:02:26;2.42;97.32
77496;SHT31;66600;48.378;9.948;2023-11-18T03:03:00;2.38;97.31
77496;SHT31;66600;48.378;9.948;2023-11-18T03:03:30;2.32;97.51
77496;SHT31;66600;48.378;9.948;2023-11-18T03:04:01;2.34;97.56
77496;SHT31;66600;48.378;9.948;2023-11-18T03:04:32;2.34;97.52
77496;SHT31;66600;48.378;9.948;2023-11-18T03:05:02;2.32;97.51
77496;SHT31;66600;48.378;9.948;2023-11-18T03:05:33;2.31;97.51
77496;SHT31;66600;48.378;9.948;2023-11-18T03:06:04;2.29;97.52
77496;SHT31;66600;48.378;9.948;2023-11-18T03:06:36;2.24;97.57
77496;SHT31;66600;48.378;9.948;2023-11-18T03:07:06;2.28;97.54
77496;SHT31;66600;48.378;9.948;2023-11-18T03:07:39;2.25;97.56
77496;SHT31;66600;48.378;9.948;2023-11-18T03:08:11;2.27;97.52
77496;SHT31;66600;48.378;9.948;2023-11-18T03:08:42;2.28;97.56
77496;SHT31;66600;48.378;9.948;2023-11-18T03:09:12;2.25;97.51
77496;SHT31;66600;48.378;9.948;2023-11-18T03:09:43;2.27;97.51
77496;SHT31;66600;48.378;9.948;2023-11-18T03:10:17;2.22;97.51
77496;SHT31;66600;48.378;9.948;2023-11-18T03:10:53;2.22;97.58
77496;SHT31;66600;48.378;9.948;2023-11-18T03:11:24;2.20;97.61
77496;SHT31;66600;48.378;9.948;2023-11-18T03:11:54;2.18;97.52
77496;SHT31;66600;48.378;9.948;2023-11-18T03:12:25;2.20;97.59
77496;SHT31;66600;48.378;9.948;2023-11-18T03:12:58;2.14;97.58
77496;SHT31;66600;48.378;9.948;2023-11-18T03:13:28;2.13;97.61
77496;SHT31;66600;48.378;9.948;2023-11-18T03:13:59;2.14;97.65
77496;SHT31;66600;48.378;9.948;2023-11-18T03:14:30;2.11;97.74
77496;SHT31;66600;48.378;9.948;2023-11-18T03:15:02;2.08;97.81
77496;SHT31;66600;48.378;9.948;2023-11-18T03:15:33;2.04;97.95
77496;SHT31;66600;48.378;9.948;2023-11-18T03:16:07;2.03;97.93
77496;SHT31;66600;48.378;9.948;2023-11-18T03:16:41;2.03;97.97
77496;SHT31;66600;48.378;9.948;2023-11-18T03:17:11;2.06;97.92
77496;SHT31;66600;48.378;9.948;2023-11-18T03:17:43;2.03;97.89
77496;SHT31;66600;48.378;9.948;2023-11-18T03:18:14;2.04;97.85
77496;SHT31;66600;48.378;9.948;2023-11-18T03:18:45;2.04;97.87
77496;SHT31;66600;48.378;9.948;2023-11-18T03:19:15;2.01;97.98
77496;SHT31;66600;48.378;9.948;2023-11-18T03:19:46;2.03;97.92
77496;SHT31;66600;48.378;9.948;2023-11-18T03:20:17;2.03;97.97
77496;SHT31;66600;48.378;9.948;2023-11-18T03:20:47;2.03;97.98
77496;SHT31;66600;48.378;9.948;2023-11-18T03:21:19;2.04;98.00
77496;SHT31;66600;48.378;9.948;2023-11-18T03:21:52;2.06;97.94
77496;SHT31;66600;48.378;9.948;2023-11-18T03:22:23;2.06;97.96
77496;SHT31;66600;48.378;9.948;2023-11-18T03:22:53;2.07;97.93
77496;SHT31;66600;48.378;9.948;2023-11-18T03:23:24;2.06;97.91
77496;SHT31;66600;48.378;9.948;2023-11-18T03:23:54;2.07;97.97